Kcmh metar

METAR. KCMH 220251Z 00000KT 10SM SCT060

METAR Memphis International Airport - KMEM/MEM. Memphis International Airport is a large airport in Mississippi, United States. The airport is located at latitude 35.04267 and longitude -89.97663. The airport has 4 runways: 18C/36C, 9/27, 18L/36R and 18R/36L. The ICAO airport code of this field is KMEM.KCMH METAR Weather: KCMH 030551Z 00000KT 10SM BKN250 18/16 A2991 RMK AO2 SLP121 T01830156 10283 20183 58008 $ KCMH Flight Activity (FlightAware) KCMH Webcam: KCMH Airport Info (iFlightPlanner) KCMH App/Dep (119.65) Feed Status: UP Listeners: 0 (in browser, HTML5) (launches your MP3 player)

Did you know?

Get the latest aviation weather forecasts and observations for KCVG airport, including translated TAFs and METARs, from the Aviation Weather Center.METAR Fairfield County - KLHQ. Fairfield County is a midsized airport in Ohio, United States. The airport is located at latitude 39.75564 and longitude -82.65710. The airport has one runway: 10/28. The ICAO airport code of this field is KLHQ. The local airport ID (FAA LID) of this airport is LHQ. The airport is in the Indianapolis FIR .METAR Easterwood Field - KCLL/CLL . Easterwood Field is a midsized airport in Texas, United States. The airport is located at latitude 30.58819 and longitude -96.36287. The airport has 2 runways: 17/35 and 11/29. The ICAO airport code of this field is KCLL. The local airport ID (FAA LID) of this airport is CLL. ...KCMH. IATA. CMH. Latitude. 39.998001. 39° 59' 52.80" N. Longitude. -82.891899. 82° 53' 30.83" W. Elevation. 815' Facitlity Type. Airport. Status. Operational. Time UTC. UTC …METAR KCMH 190251Z 12005KT 10SM BKN250 18/08 A2995 RMK AO2 SLP140 T01780083 56012. The wind is from direction 120° with a speed of 5 kt. Visibility is 10 mi. The ceiling, broken or more, is 25,000 ft. The temperature and wind chill are 18 °C.KCMH METAR Weather: KCMH 011451Z 16008KT 10SM SCT110 BKN250 22/11 A2998 RMK AO2 SLP149 T02170106 58010 KCMH Flight Activity (FlightAware) KCMH Airport Info (iFlightPlanner) KCMH App/Dep (134.0) Feed Status: UP Listeners: 1 (in browser, HTML5) (launches your MP3 player) KCMH App/Dep (134.0) Audio Archives:METAR KCMH 190451Z 13010KT 10SM BKN250 19/07 A2989 RMK AO2 SLP118 T01940072 402280117. The wind is from direction 130° with a speed of 10 kt. Visibility is 10 mi. The ceiling, broken or more, is 25,000 ft. The temperature and wind chill are 19 °C.METAR KCMH 040351Z 10004KT 10SM CLR 20/16 A3014 RMK AO2 SLP198 T02000161. The wind is from direction 100° with a speed of 4 kt. Visibility is 10 mi. ... KOSU - Ohio State University Airport (9.7 NM) METAR KLCK - Rickenbacker International Airport (11 NM) METAR TAF KTZR - Bolton Field (13 NM) METAR KLHQ - Fairfield County (18 NM) …METAR KCMH 040751Z 09004KT 10SM CLR 17/15 A3012 RMK AO2 SLP194 T01720150. The wind is from direction 090° with a speed of 4 kt. Visibility is 10 mi. ... KOSU - Ohio State University Airport (9.7 NM) METAR KLCK - Rickenbacker International Airport (11 NM) METAR TAF KTZR - Bolton Field (13 NM) METAR KLHQ - Fairfield County (18 …METAR KCMH 172128Z 24019G35KT 10SM TS BKN055CB BKN090 OVC110 24/14 A2974 RMK AO2 PK WND 21035/2124 LTG DSNT ALQDS TSB26 PRESRR FRQ LTGCCCG TS W-N MOV E T02440139 $. Current weather is thunderstorms .The wind is from direction 240° with a speed of 19 kt. Visibility is 10 mi. The ceiling, broken or more, is 5,500 ft. The temperature and wind chill are 24 °C.Forecast at KCMH. No Forecast Reports for KCMH. The worlds largest airport database! Maintained by pilots, flight simulator enthusiast, and members of the aviation community.AWC - Aviation Weather CenterMETAR KCMH 172351Z 31006KT 10SM FEW050 SCT200 19/16 A2981 RMK AO2 LTG DSNT SE AND S SLP090 CB DSNT SE-S 60073 T01890156 10261 20150 51036 $. The wind is from direction 310° with a speed of 6 kt. Visibility is 10 mi. No ceiling has been observed. The temperature and wind chill are 19 °C. Get the latest aviation weather forecasts and observations for KCVG airport, including translated TAFs and METARs, from the Aviation Weather Center. See Observing and Coding Present Weather Group for additional information. BKN015 OVC025: SKY CONDITION: Cloud amount and height: CLR (In automated METAR reports only, no clouds detected below 12000 feet.); SKy Clear 0/8; FEW 1/8-2/8; SCattered 3/8-4/8; BroKeN 5/8-7/8; OVerCast 8/8; 3-digit height of base in hundreds of feet; followed by Towering CUmulus or CumulonimBus if present.METAR Lynchburg Regional/Preston Glenn Field - KLYH/LYHApr 17, 2024 · METAR KCMH 172220Z 30004K Weather radar, wind and waves forecast for kiters, surfers, paragliders, pilots, sailors and anyone else. Worldwide animated weather map, with easy to use layers and precise spot forecast. METAR, TAF and NOTAMs for any airport in the World. SYNOP codes from weather stations and buoys. Forecast models ECMWF, GFS, NAM and NEMS. AWC - Aviation Weather Center METAR MBS International Airport - KMBS/MBS. MBS Internat METAR Houghton County Memorial Airport - KCMX/CMX . Houghton County Memorial Airport is a midsized airport in Michigan, United States. The airport is located at latitude 47.16829 and longitude -88.48908. The airport has 2 runways: 14/32 and 7/25. The ICAO airport code of this field is KCMX. 880 ftus41 kiln 020523 tafcmh taf kcmh 020523z 0206/0306 v

METAR KCMH 182351Z 15006KT 10SM FEW150 BKN250 21/08 A2999 RMK AO2 SLP152 T02110083 10228 20200 58011. The wind is from direction 150° with a speed of 6 kt. Visibility is 10 mi. The ceiling, broken or more, is 25,000 ft. The temperature and wind chill are 21 °C.The aim of Zebra Labs is to "create intellectual property that's deeply integrated with content" and "run virtual idols like celebrities." In June, Chinese pop-punk singer Wowkie Z...METAR KCMH 170951Z 22014KT 8SM -RA FEW050 BKN095 OVC120 20/14 A2994 RMK AO2 RAB03E12B45 SLP132 P0000 T02000139. Current weather is light rain.The wind is from direction 220° with a speed of 14 kt. Visibility is 8 mi. The ceiling, broken or more, is 9,500 ft. The temperature and wind chill are 20 °C.METAR Schenectady County Airport - KSCH/SCH. Schenectady County Airport is a midsized airport in New York, United States. The airport is located at latitude 42.85210 and longitude -73.92990. The airport has 2 runways: 4/22 and 10/28.

Instagram is removing the ‘Recent’ tab on hashtag pages for some users as part of a small test, the company announced on Tuesday. Currently, when you select a hashtag, you’re taken...METAR KCMH 170651Z 18005KT 10SM OVC140 22/12 A2988 RMK AO2 SLP111 T02220122. The wind is from direction 180° with a speed of 5 kt. Visibility is 10 mi. The ceiling, broken or more, is 14,000 ft. The temperature and wind chill are 22 °C.…

Reader Q&A - also see RECOMMENDED ARTICLES & FAQs. METAR KCMH 111651Z 10003KT 3SM +RA BR FEW006 BKN. Possible cause: metar; ktzr : 032335z auto 28010g14kt 10sm sct030 bkn035 ovc045 21/17 a2999 rmk a.

Temperature 63 °F. Humidity 88 % Pressure 29.97 in. Hg. Visibility: 10 miles. Broken clouds at a height of 25000 ft. Change units. METAR: KCMH 020551Z 13003KT 10SM BKN250 17/15 A2997 RMK AO2 SLP144 T01720150 10261 20172 51004. Time: 02:07 (06:07 UTC) Forecast. The report was made 44 minutes ago, at 05:23 UTC.METAR KCMH 172051Z 20019G28KT 10SM SCT050 SCT065 BKN095 24/14 A2970 RMK AO2 PK WND 18037/2016 LTG DSNT W-N SLP050 VCSH W-NW T02440139 56029 $. The wind is from direction 200° with a speed of 19 kt. Visibility is 10 mi. The ceiling, broken or more, is 9,500 ft. The temperature and wind chill are 24 °C.. Thankfully, there are lots of great websites offering a wide variety of adult playthings. Sex toys have lost much of their stigma in a post-Fifty Shades world, but those on the h...

metar; ktzr : 032335z auto 28010g14kt 10sm sct030 bkn035 ovc045 21/17 a2999 rmk ao2 t02100171 kosu ... 60000 t02060172 10250 20206 53001 klck 11nm se : 032255z auto 12004kt 10sm sct075 bkn100 23/17 a2997 rmk ao2 t02280167 kcmh 13nm ne : 032351z 10004kt 10sm few070 bkn090 ovc140 22/17 a2998 rmk ao2 slp146 t02170167 10239 20217 55000 kuyfDetailed Forecast. Overnight. A chance of showers, with thunderstorms also possible after 5am. Mostly cloudy, with a low around 63. South wind around 8 mph. Chance of precipitation is 30%. New rainfall amounts between a tenth and quarter of an inch, except higher amounts possible in thunderstorms. Wednesday.

A METAR (Meteorological Terminal Air Report) is a routine aviation wea Apr 18, 2024 · METAR KCMH 181351Z 00000KT 10SM FEW032 FEW250 16/09 A3007 RMK AO2 SLP181 T01560089. There is little or no wind from a variable direction. Visibility is 10 mi. No ceiling has been observed. The temperature and wind chill are 16 °C. AWC - Aviation Weather Center Make your Flight Plan at SkyVector.com. SkyVector is a free oMETAR KCMH 030851Z 00000KT 10SM CLR 16/16 A3019 RMK AO2 S KCMH METAR Weather: KCMH 220151Z 00000KT 10SM FEW055 08/M02 A3011 RMK AO2 SLP201 T00781022 KCMH Flight Activity (FlightAware) KCMH Webcam: KCMH Airport Info (iFlightPlanner) KCMH Del/Gnd/Twr: Feed Status: UP Listeners: 1 (in browser, HTML5) (launches your MP3 player) KCMH Del/Gnd/Twr Audio Archives:AWC - Aviation Weather Center METAR KCMH 170751Z 17005KT 10SM FEW120 OVC150 22/12 A2988 METAR KCMH 080251Z 02009KT 10SM FEW150 10/07 A3005 RMK AO2 SLP176 T01000067 53017. The wind is from direction 020° with a speed of 9 kt. Visibility is 10 mi. No ceiling has been observed. The temperature is 10 °C, with a wind chill of 7 °C. METAR La Guardia Airport - KLGA/LGA. La Guardia Airport iKCMH METAR TAF. AREA AREA METARS. AREA TAFS. ADVISORIES 2 AIRMETSAWC - Aviation Weather Center kcmh 031751z 12004kt 10sm clr 29/16 a3018 rmk ao2 slp215 t02940161 10294 20156 58017 Conditions at: KCMH (COLUMBUS , OH, US) observed 1751 UTC 03 October 2023 METAR. KCMH 220251Z 00000KT 10SM SCT060 07/M01 A3012 RMK AO2 SLP2 METAR KCMH 032151Z 10007KT 10SM FEW060 29/16 A3012 RMK AO2 SLP192 T02940161. The wind is from direction 100° with a speed of 7 kt. Visibility is 10 mi. ... (9.7 NM) METAR KLCK - Rickenbacker International Airport (11 NM) METAR TAF KTZR - Bolton Field (13 NM) METAR KLHQ - Fairfield County (18 NM) METAR. 3 October 17:51 …METAR Khartoum International Airport - HSSK/KRT. Khartoum International Airport is a midsized airport in Khartoum, Sudan. The airport is located at latitude 15.58950 and longitude 32.55320. The airport has one runway: 18/36. metar; klck : 300655z auto 35005kt 10sm sct041[METAR KCMH 172109Z 20018G35KT 10SM VCTS BKN055 BKN070 OVC090 24/14METAR KCMH 201951Z 20011G25KT 10SM BKN250 29/08 A KMIA. MIA DEP INFO T 2253Z. 11010KT 10SM FEW030 FEW130 BKN250 27/21 A2990 (TWO NINER NINER ZERO) RMK AO2 SLP125. DEPG RWYS 8L, 8R, 9, 12. ACFT ASSIGNED RWY 8R OR 8L MUST HAVE NUMBERS FOR RWY 12 ALSO.. RWY 8L, RWY 8R FREQ 118.3 RWY 9, RWY 12 FREQ 123.9. NOTICE TO AIR MISSIONS.